METAR Data
IDs: Format: Raw Decoded Include TAF

Data at: 0910 UTC 26 Jan 2020

KCLI 260855Z AUTO 30007KT 10SM OVC055 01/M01 A2984 RMK AO2 T00091013
KCLI 260835Z AUTO 30006KT 10SM OVC055 01/M01 A2984 RMK AO2 T00091012
KCLI 260815Z AUTO 30006KT 10SM SCT046 OVC055 01/M01 A2984 RMK AO2 T00091012
KCLI 260755Z AUTO 29007KT 10SM OVC046 01/M01 A2983 RMK AO2 T00081010
KCLI 260735Z AUTO 29005KT 10SM OVC048 01/M01 A2983 RMK AO2 T00071008
KCLI 260715Z AUTO 28005KT 10SM OVC048 01/M01 A2983 RMK AO2 T00071008
KCLI 260655Z AUTO 29005KT 10SM OVC050 01/M01 A2983 RMK AO2 T00071010 400180000
KCLI 260635Z AUTO 29006KT 10SM OVC050 01/M01 A2983 RMK AO2 T00071010
KCLI 260615Z AUTO 29006KT 10SM SCT039 OVC050 01/M01 A2983 RMK AO2 T00061009
KCLI 260555Z AUTO 29006KT 10SM -SN SCT039 OVC050 01/M01 A2983 RMK AO2 T00071008 10015 20007
KCLI 260535Z AUTO 29005KT 10SM SCT030 SCT039 OVC050 01/M01 A2984 RMK AO2 T00081009
KCLI 260515Z AUTO 30007KT 10SM BKN039 OVC048 01/M01 A2984 RMK AO2 T00081008
KCLI 260455Z AUTO 29007KT 10SM BKN039 OVC050 01/M01 A2983 RMK AO2 T00081006
KCLI 260435Z AUTO 29006KT 10SM -SN BKN043 OVC060 01/00 A2983 RMK AO2 T00081005
KCLI 260415Z AUTO 30008KT 7SM -SN SCT016 BKN043 OVC060 01/M01 A2982 RMK AO2 T00101006
KCLI 260355Z AUTO 30007KT 10SM OVC045 01/00 A2983 RMK AO2 T00101005
KCLI 260335Z AUTO 30004KT 10SM SCT037 OVC045 01/00 A2982 RMK AO2 T00101005
KCLI 260315Z AUTO 30005KT 10SM BKN037 BKN047 OVC095 01/00 A2982 RMK AO2 T00101004
KCLI 260255Z AUTO 30006KT 10SM SCT039 SCT050 OVC095 01/00 A2982 RMK AO2 T00101002
KCLI 260235Z AUTO 30005KT 10SM BKN041 OVC085 01/00 A2982 RMK AO2 T00120000
KCLI 260215Z AUTO 31005KT 10SM -DZ SCT044 SCT055 OVC085 01/00 A2982 RMK AO2 T00120000
KCLI 260155Z AUTO 30004KT 10SM BKN055 BKN065 OVC085 01/00 A2982 RMK AO2 T00130000
KCLI 260135Z AUTO 31005KT 10SM SCT043 OVC055 01/00 A2982 RMK AO2 T00120000
KCLI 260115Z AUTO 29005KT 10SM SCT017 SCT024 OVC041 01/00 A2982 RMK AO2 T00130000
KCLI 260055Z AUTO 28004KT 10SM SCT017 BKN027 OVC036 01/00 A2982 RMK AO2 T00120000
KCLI 260035Z AUTO 29003KT 10SM -RA BKN023 OVC029 01/00 A2982 RMK AO2 T00130000
KCLI 260015Z AUTO 28003KT 10SM OVC025 01/00 A2982 RMK AO2 T00130000
KCLI 252355Z AUTO 28004KT 10SM OVC023 01/00 A2981 RMK AO2 T00140000 10018 20011
KCLI 252335Z AUTO 28003KT 10SM OVC019 01/00 A2981 RMK AO2 T00140000
KCLI 252315Z AUTO 28003KT 10SM -DZ OVC021 02/00 A2981 RMK AO2 T00150000
KCLI 252255Z AUTO 28003KT 10SM OVC023 02/00 A2981 RMK AO2 T00150000
KCLI 252235Z AUTO 27003KT 10SM OVC023 02/00 A2980 RMK AO2 T00150000
KCLI 252215Z AUTO 00000KT 10SM OVC025 02/00 A2980 RMK AO2 T00150000
KCLI 252155Z AUTO 00000KT 10SM SCT012 OVC025 02/00 A2980 RMK AO2 T00150000
KCLI 252135Z AUTO 00000KT 10SM BKN012 OVC020 02/00 A2980 RMK AO2 T00161001
KCLI 252115Z AUTO 00000KT 10SM BKN020 BKN030 OVC046 02/00 A2979 RMK AO2 T00181001
KCLI 252055Z AUTO 00000KT 10SM -DZ SCT008 BKN028 OVC046 02/00 A2978 RMK AO2 T00170000
KCLI 252035Z AUTO 00000KT 10SM SCT006 SCT014 OVC026 02/00 A2978 RMK AO2 T00160000
KCLI 252015Z AUTO 33003KT 10SM -RA SCT006 SCT011 OVC028 02/00 A2978 RMK AO2 T00150000
KCLI 251955Z AUTO 32004KT 7SM -DZ SCT006 BKN011 OVC028 01/00 A2978 RMK AO2 T00131001
KCLI 251935Z AUTO 33005KT 7SM -RA BKN006 BKN011 OVC017 01/00 A2978 RMK AO2 T00121001
KCLI 251915Z AUTO 33005KT 5SM -RA BKN008 OVC012 01/00 A2978 RMK AO2 T00121004
KCLI 251855Z AUTO 34004KT 10SM OVC010 02/00 A2978 RMK AO2 T00151005
KCLI 251835Z AUTO 34003KT 10SM OVC010 01/00 A2978 RMK AO2 T00131005
KCLI 251815Z AUTO 35004KT 10SM OVC010 01/M01 A2978 RMK AO2 T00121006
KCLI 251755Z AUTO 34004KT 10SM OVC010 01/M01 A2978 RMK AO2 60002 T00121006 10012 20000
KCLI 251735Z AUTO 34004KT 10SM OVC010 01/M01 A2979 RMK AO2 T00111006
KCLI 251715Z AUTO 34004KT 10SM OVC010 01/M01 A2979 RMK AO2 T00101007
KCLI 251655Z AUTO 00000KT 10SM OVC010 01/M01 A2980 RMK AO2 T00091007
KCLI 251635Z AUTO 35003KT 10SM OVC010 01/M01 A2980 RMK AO2 T00101008
KCLI 251615Z AUTO 35004KT 10SM OVC010 01/M01 A2979 RMK AO2 T00071009
KCLI 251555Z AUTO 36003KT 10SM OVC014 01/M01 A2979 RMK AO2 T00061010
KCLI 251535Z AUTO 34003KT 10SM OVC014 01/M01 A2978 RMK AO2 T00051010
KCLI 251515Z AUTO 34003KT 10SM OVC011 00/M01 A2978 RMK AO2 T00021011
KCLI 251455Z AUTO 34003KT 10SM OVC013 00/M01 A2978 RMK AO2 60002 T00011011
KCLI 251435Z AUTO 35003KT 10SM 00/M01 A2978 RMK AO2 T00001011
KCLI 251415Z AUTO 34003KT 10SM OVC012 00/M01 A2978 RMK AO2 T00001011
KCLI 251355Z AUTO 35003KT 4SM -SN SCT007 OVC012 00/M01 A2978 RMK AO2 T00001010
KCLI 251335Z AUTO 35003KT 2SM -SN BKN007 BKN010 OVC014 00/M01 A2978 RMK AO2 T00001010
KCLI 251315Z AUTO 00000KT 2 1/2SM -SN SCT005 BKN008 OVC015 00/M01 A2978 RMK AO2 T00001010
KCLI 251255Z AUTO 35003KT 1 3/4SM -SN BKN005 OVC010 00/M01 A2978 RMK AO2 P0002 T00001010
KCLI 251235Z AUTO 00000KT 1 1/2SM -SN OVC005 00/M01 A2978 RMK AO2 P0001 T00001010
KCLI 251215Z AUTO 35003KT 1 1/2SM -SN OVC005 00/M01 A2977 RMK AO2 T00001010
KCLI 251155Z AUTO 35004KT 1 1/4SM -SN OVC005 00/M01 A2977 RMK AO2 P0002 60012 70017 T00001010 10003 20000
KCLI 251135Z AUTO 35003KT 1 3/4SM -SN OVC007 00/M01 A2976 RMK AO2 P0001 T00001010
KCLI 251115Z AUTO 00000KT 1 1/4SM -SN OVC004 00/M01 A2976 RMK AO2 P0001 T00001009
KCLI 251055Z AUTO 36003KT 1SM SN OVC004 00/M01 A2976 RMK AO2 P0004 T00001010
KCLI 251035Z AUTO 36004KT 1 1/4SM -SN OVC004 00/M01 A2976 RMK AO2 P0002 T00001010
KCLI 251015Z AUTO 01003KT 1 1/2SM -SN OVC004 00/M01 A2976 RMK AO2 P0001 T00001009
KCLI 250955Z AUTO 01005KT 1 1/2SM -SN OVC004 00/M01 A2976 RMK AO2 P0003 T00001008
KCLI 250935Z AUTO 36003KT 1 1/2SM -SN OVC004 00/M01 A2976 RMK AO2 P0002 T00001008
KCLI 250915Z AUTO 36004KT 1 1/4SM -SN OVC004 00/M01 A2977 RMK AO2 VIS 1V2 P0001 T00001008
KCLI 250855Z AUTO 01004KT 2 1/2SM -SN OVC006 00/M01 A2977 RMK AO2 VIS 1 3/4V3 P0002 60002 T00001007
KCLI 250835Z AUTO 01004KT 2SM -SN OVC006 00/M01 A2978 RMK AO2 P0001 T00001007
KCLI 250815Z AUTO 01004KT 2SM -SN OVC006 00/M01 A2978 RMK AO2 P0001 T00011006
KCLI 250755Z AUTO 36005KT 3SM -SN OVC006 00/M01 A2978 RMK AO2 T00011007
KCLI 250735Z AUTO 36005KT 5SM -SN OVC006 00/M01 A2978 RMK AO2 T00011007
KCLI 250715Z AUTO 01005KT 4SM -SN OVC006 00/M01 A2978 RMK AO2 T00011006
KCLI 250655Z AUTO 02005KT 4SM -SN OVC004 00/M01 A2979 RMK AO2 T00011006 400110001
KCLI 250635Z AUTO 01005KT 5SM -SN OVC006 00/M01 A2979 RMK AO2 T00021006
KCLI 250615Z AUTO 01006KT 5SM -SN OVC006 00/M01 A2979 RMK AO2 T00021006
KCLI 250555Z AUTO 01006KT 5SM UP OVC006 00/00 A2980 RMK AO2 60004 T00031005 10008 20003
KCLI 250535Z AUTO 02005KT 7SM OVC006 01/00 A2981 RMK AO2 T00051005
KCLI 250515Z AUTO 03005KT 10SM OVC006 00/00 A2981 RMK AO2 T00031005
KCLI 250455Z AUTO 01005KT 7SM OVC006 00/00 A2981 RMK AO2 T00041005
KCLI 250435Z AUTO 02004KT 7SM -SN OVC004 00/00 A2981 RMK AO2 T00031005
KCLI 250415Z AUTO 02004KT 5SM -SN OVC004 00/00 A2982 RMK AO2 T00031004
KCLI 250355Z AUTO 02004KT 2 1/2SM -SN OVC004 00/00 A2982 RMK AO2 P0002 T00031005
KCLI 250335Z AUTO 02005KT 3SM -SN OVC004 00/00 A2983 RMK AO2 P0001 T00031005
KCLI 250315Z AUTO 03007KT 2 1/2SM -SN OVC004 01/00 A2983 RMK AO2 P0001 T00051004
KCLI 250255Z AUTO 02005KT 4SM -SN OVC004 01/00 A2983 RMK AO2 P0001 60002 T00051003
KCLI 250235Z AUTO 02006KT 2 1/2SM -SN OVC004 01/00 A2984 RMK AO2 P0001 T00051003
KCLI 250215Z AUTO 01007KT 4SM -SN OVC004 01/00 A2984 RMK AO2 T00051002
KCLI 250155Z AUTO 01007KT 4SM -SN OVC004 01/00 A2984 RMK AO2 P0001 T00051002
KCLI 250135Z AUTO 02007KT 3SM -RA OVC004 01/00 A2985 RMK AO2 T00061001
KCLI 250115Z AUTO 02006KT 3SM -SN OVC004 01/00 A2986 RMK AO2 T00070000
KCLI 250055Z AUTO 02005KT 3SM DZ OVC004 01/00 A2986 RMK AO2 T00070000
KCLI 250035Z AUTO 03008KT 3SM -DZ OVC004 01/00 A2986 RMK AO2 T00070000
KCLI 250015Z AUTO 03007KT 2 1/2SM DZ OVC004 01/00 A2986 RMK AO2 T00070000
KCLI 242355Z AUTO 04007KT 4SM BR OVC004 01/00 A2987 RMK AO2 T00071001 10011 20007
KCLI 242335Z AUTO 05007KT 3SM BR OVC004 01/00 A2987 RMK AO2 T00070000
KCLI 242315Z AUTO 04008KT 2 1/2SM BR OVC004 01/00 A2987 RMK AO2 T00070000
KCLI 242255Z AUTO 04007KT 2 1/2SM BR OVC004 01/00 A2987 RMK AO2 T00080000
KCLI 242235Z AUTO 04007KT 2SM BR OVC004 01/00 A2987 RMK AO2 T00090000
KCLI 242215Z AUTO 05007KT 2 1/2SM BR OVC004 01/00 A2988 RMK AO2 T00100000
KCLI 242155Z AUTO 05008KT 2SM BR OVC004 01/00 A2988 RMK AO2 T00100000
KCLI 242135Z AUTO 05007KT 2 1/2SM -DZ OVC004 01/00 A2988 RMK AO2 T00100000
KCLI 242115Z AUTO 05006KT 3SM -DZ OVC004 01/00 A2988 RMK AO2 T00100000